Time;durP1;ratioP1;P1;durP2;ratioP2;P2;SDS_P1;SDS_P2;PMS_P1;PMS_P2;Temp;Humidity;BMP_temperature;BMP_pressure;BME280_temperature;BME280_humidity;BME280_pressure;Samples;Min_cycle;Max_cycle;Signal;HPM_P1;HPM_P2
2022/04/17 00:00:23;;;;;;;7.47;4.22;;;6.70;95.10;;;;;;4888853;29;20033;-81
2022/04/17 00:02:49;;;;;;;7.03;4.20;;;6.70;95.20;;;;;;4887543;29;20029;-79
2022/04/17 00:05:14;;;;;;;8.27;4.85;;;6.60;95.30;;;;;;4887841;29;20154;-83
2022/04/17 00:07:40;;;;;;;7.45;4.45;;;6.60;95.30;;;;;;4887324;29;20045;-80
2022/04/17 00:10:09;;;;;;;7.22;3.90;;;6.50;95.50;;;;;;4886518;29;20025;-81
2022/04/17 00:12:36;;;;;;;7.22;4.20;;;6.50;95.50;;;;;;4893130;29;20304;-80
2022/04/17 00:15:03;;;;;;;6.60;4.43;;;6.50;95.70;;;;;;4893895;29;20089;-81
2022/04/17 00:17:29;;;;;;;8.25;4.63;;;6.40;95.80;;;;;;4893982;29;20072;-82
2022/04/17 00:19:56;;;;;;;10.43;4.90;;;6.40;96.10;;;;;;4887709;29;20060;-80
2022/04/17 00:22:25;;;;;;;8.27;4.47;;;6.40;96.00;;;;;;4887862;29;20161;-82
2022/04/17 00:24:52;;;;;;;10.52;4.10;;;6.30;96.20;;;;;;4886383;29;20493;-81
2022/04/17 00:27:18;;;;;;;7.15;3.97;;;6.30;96.20;;;;;;4888547;29;20037;-81
2022/04/17 00:29:44;;;;;;;8.13;4.65;;;6.30;96.10;;;;;;4888425;29;20025;-80
2022/04/17 00:32:11;;;;;;;8.25;4.20;;;6.20;96.00;;;;;;4888273;29;20061;-80
2022/04/17 00:34:37;;;;;;;9.90;4.57;;;6.20;95.70;;;;;;4890091;29;20081;-80
2022/04/17 00:37:05;;;;;;;6.82;4.10;;;6.20;95.80;;;;;;4893205;29;20081;-80
2022/04/17 00:39:31;;;;;;;9.63;4.45;;;6.20;95.90;;;;;;4897908;29;20093;-81
2022/04/17 00:42:00;;;;;;;10.30;4.35;;;6.10;96.20;;;;;;4895571;29;20497;-80
2022/04/17 00:44:26;;;;;;;8.07;4.50;;;6.10;96.30;;;;;;4892088;29;20033;-81
2022/04/17 00:46:53;;;;;;;7.22;4.32;;;6.10;96.30;;;;;;4893695;29;20108;-80
2022/04/17 00:49:18;;;;;;;8.25;3.97;;;6.00;96.40;;;;;;4893008;29;20024;-79
2022/04/17 00:51:47;;;;;;;6.80;4.03;;;6.00;96.40;;;;;;4898531;29;20024;-79
2022/04/17 00:54:14;;;;;;;7.63;4.40;;;6.00;96.40;;;;;;4904051;29;20021;-79
2022/04/17 00:56:41;;;;;;;9.43;4.20;;;6.00;96.50;;;;;;4903004;29;20065;-81
2022/04/17 00:59:10;;;;;;;8.10;4.30;;;6.00;96.70;;;;;;4904058;29;20089;-79
2022/04/17 01:01:37;;;;;;;5.80;4.00;;;6.00;96.80;;;;;;4904440;29;20078;-79
2022/04/17 01:04:05;;;;;;;10.02;4.63;;;6.00;96.90;;;;;;4904294;29;20124;-80
2022/04/17 01:06:32;;;;;;;8.68;3.88;;;6.00;97.00;;;;;;4903766;29;20033;-79
2022/04/17 01:08:59;;;;;;;6.57;4.03;;;5.90;97.10;;;;;;4901982;29;20037;-81
2022/04/17 01:11:25;;;;;;;8.70;4.70;;;5.90;97.40;;;;;;4895740;29;20088;-80
2022/04/17 01:13:55;;;;;;;9.63;4.88;;;5.90;97.40;;;;;;4896882;29;20497;-81
2022/04/17 01:16:23;;;;;;;7.40;4.30;;;5.90;97.30;;;;;;4899580;29;20028;-77
2022/04/17 01:19:01;;;;;;;12.18;4.25;;;5.80;97.60;;;;;;4904527;29;20061;-80
2022/04/17 01:21:27;;;;;;;9.18;4.68;;;5.80;97.50;;;;;;4903309;29;20072;-80
2022/04/17 01:26:58;;;;;;;6.53;3.95;;;5.70;97.20;;;;;;4901952;29;20110;-79
2022/04/17 01:29:37;;;;;;;6.97;3.85;;;5.70;97.40;;;;;;4904790;29;20051;-78
2022/04/17 01:32:08;;;;;;;7.85;4.25;;;5.70;97.40;;;;;;4904343;29;20075;-79
2022/04/17 01:34:35;;;;;;;11.82;4.50;;;5.70;97.20;;;;;;4900689;29;20127;-80
2022/04/17 01:37:01;;;;;;;8.82;4.43;;;5.60;97.40;;;;;;4891512;29;20036;-82
2022/04/17 01:39:28;;;;;;;7.75;4.38;;;5.50;97.50;;;;;;4896985;29;20397;-79
2022/04/17 01:41:54;;;;;;;10.30;4.65;;;5.60;97.90;;;;;;4899301;29;20113;-79
2022/04/17 01:44:21;;;;;;;8.50;4.50;;;5.50;98.50;;;;;;4889153;29;20037;-79
2022/04/17 01:46:48;;;;;;;7.72;4.30;;;5.50;98.70;;;;;;4905220;29;20037;-79
2022/04/17 01:49:17;;;;;;;8.77;4.43;;;5.50;98.90;;;;;;4904414;29;20119;-81
2022/04/17 01:51:45;;;;;;;11.63;4.95;;;5.50;99.40;;;;;;4898416;29;20033;-78
2022/04/17 01:54:14;;;;;;;8.55;4.50;;;5.50;99.40;;;;;;4879679;29;20047;-79
2022/04/17 01:56:40;;;;;;;10.70;4.65;;;5.50;99.80;;;;;;4898500;29;20085;-80
2022/04/17 01:59:07;;;;;;;9.32;4.53;;;5.40;99.70;;;;;;4902436;29;20013;-80
2022/04/17 02:01:33;;;;;;;8.65;4.95;;;5.40;99.90;;;;;;4903037;29;20021;-80
2022/04/17 02:04:01;;;;;;;11.15;5.20;;;5.40;99.90;;;;;;4896482;29;20061;-81
2022/04/17 02:06:27;;;;;;;6.57;4.20;;;5.40;99.90;;;;;;4890654;29;20080;-81
2022/04/17 02:08:53;;;;;;;7.45;4.53;;;5.30;99.90;;;;;;4886837;29;20040;-82
2022/04/17 02:11:20;;;;;;;9.23;4.78;;;5.30;99.90;;;;;;4889280;29;20034;-81
2022/04/17 02:13:46;;;;;;;8.48;4.78;;;5.30;99.90;;;;;;4887069;29;20037;-81
2022/04/17 02:16:13;;;;;;;7.53;4.47;;;5.30;99.90;;;;;;4889559;29;20025;-82
2022/04/17 02:18:39;;;;;;;7.45;4.55;;;5.20;99.90;;;;;;4891552;29;20037;-80
2022/04/17 02:21:05;;;;;;;6.70;4.47;;;5.20;99.90;;;;;;4893238;29;20022;-80
2022/04/17 02:23:30;;;;;;;9.45;4.63;;;5.20;99.90;;;;;;4895877;29;20029;-80
2022/04/17 02:25:56;;;;;;;7.80;4.18;;;5.20;99.90;;;;;;4892409;29;20029;-81
2022/04/17 02:28:22;;;;;;;7.63;4.32;;;5.20;99.90;;;;;;4871589;29;20033;-80
2022/04/17 02:30:48;;;;;;;8.65;5.07;;;5.20;99.90;;;;;;4889453;29;20047;-79
2022/04/17 02:33:13;;;;;;;9.05;4.35;;;5.20;99.80;;;;;;4890727;29;20029;-81
2022/04/17 02:35:39;;;;;;;6.25;4.15;;;5.10;99.80;;;;;;4886843;29;20033;-82
2022/04/17 02:38:05;;;;;;;8.18;4.40;;;5.20;99.60;;;;;;4886307;29;20033;-81
2022/04/17 02:40:31;;;;;;;6.63;3.88;;;5.10;99.60;;;;;;4885693;29;20026;-81
2022/04/17 02:42:58;;;;;;;7.53;4.43;;;5.10;99.70;;;;;;4893818;29;20039;-79
2022/04/17 02:45:24;;;;;;;7.82;4.65;;;5.10;99.80;;;;;;4891422;29;20025;-79
2022/04/17 02:47:51;;;;;;;7.00;4.07;;;5.10;99.90;;;;;;4885627;29;20132;-81
2022/04/17 02:50:20;;;;;;;11.02;4.70;;;5.00;99.80;;;;;;4887663;29;20160;-81
2022/04/17 02:52:46;;;;;;;11.60;5.15;;;5.00;99.90;;;;;;4886579;29;20029;-81
2022/04/17 02:55:13;;;;;;;7.43;4.55;;;5.00;99.90;;;;;;4886025;29;20036;-80
2022/04/17 02:57:39;;;;;;;7.95;4.50;;;5.00;99.90;;;;;;4886428;29;20063;-80
2022/04/17 03:00:06;;;;;;;6.82;4.22;;;5.00;99.90;;;;;;4885255;29;20085;-82
2022/04/17 03:05:36;;;;;;;6.80;4.60;;;5.00;99.90;;;;;;4889068;29;20120;-80
2022/04/17 03:08:14;;;;;;;7.13;4.70;;;4.90;99.90;;;;;;4890060;29;20043;-80
2022/04/17 03:10:42;;;;;;;10.15;4.65;;;5.00;99.90;;;;;;4893272;29;20104;-81
2022/04/17 03:13:09;;;;;;;9.00;4.57;;;5.00;99.90;;;;;;4893255;29;20036;-81
2022/04/17 03:15:37;;;;;;;6.75;4.20;;;4.90;99.90;;;;;;4893108;29;20036;-82
2022/04/17 03:18:04;;;;;;;11.18;4.30;;;4.90;99.90;;;;;;4893325;29;20025;-83
2022/04/17 03:20:31;;;;;;;8.05;4.47;;;4.90;99.90;;;;;;4892717;29;20101;-79
2022/04/17 03:22:57;;;;;;;8.00;4.72;;;4.90;99.90;;;;;;4892687;29;20474;-81
2022/04/17 03:25:23;;;;;;;6.70;4.32;;;4.90;99.90;;;;;;4894700;29;20032;-78
2022/04/17 03:27:50;;;;;;;11.02;5.40;;;4.80;99.90;;;;;;4891745;29;20036;-81
2022/04/17 03:30:17;;;;;;;8.20;4.50;;;4.80;99.90;;;;;;4890031;29;20032;-80
2022/04/17 03:32:48;;;;;;;9.75;5.22;;;4.80;99.90;;;;;;4889763;29;20025;-80
2022/04/17 03:35:15;;;;;;;8.18;4.25;;;4.80;99.90;;;;;;4888326;29;20040;-79
2022/04/17 03:37:44;;;;;;;8.07;4.53;;;4.80;99.90;;;;;;4871524;29;20048;-79
2022/04/17 03:40:12;;;;;;;6.82;4.63;;;4.80;99.90;;;;;;4887498;29;20044;-81
2022/04/17 03:42:38;;;;;;;7.95;4.30;;;4.70;99.90;;;;;;4888450;29;20093;-79
2022/04/17 03:45:09;;;;;;;9.13;4.72;;;4.70;99.90;;;;;;4887777;29;20033;-80
2022/04/17 03:47:35;;;;;;;10.15;4.65;;;4.70;99.90;;;;;;4889086;29;20057;-80
2022/04/17 03:50:03;;;;;;;9.90;4.53;;;4.70;99.90;;;;;;4891582;29;20481;-78
2022/04/17 03:52:41;;;;;;;7.70;4.75;;;4.60;99.90;;;;;;4887751;29;20037;-78
2022/04/17 03:55:08;;;;;;;7.30;4.50;;;4.60;99.90;;;;;;4896268;29;20044;-79
2022/04/17 03:57:34;;;;;;;10.32;4.60;;;4.60;99.90;;;;;;4896281;29;20098;-80
2022/04/17 04:00:00;;;;;;;7.68;4.60;;;4.60;99.90;;;;;;4886915;29;20119;-80
2022/04/17 04:02:28;;;;;;;8.20;4.68;;;4.50;99.90;;;;;;4889277;29;20032;-80
2022/04/17 04:04:54;;;;;;;9.95;5.32;;;4.60;99.90;;;;;;4888241;29;20033;-81
2022/04/17 04:07:29;;;;;;;8.20;4.78;;;4.50;99.90;;;;;;4894182;29;20032;-82
2022/04/17 04:09:55;;;;;;;;;;;4.50;99.90;;;;;;4894613;29;20033;-81
2022/04/17 04:12:21;;;;;;;10.20;5.07;;;4.50;99.90;;;;;;4886691;29;19931;-80
2022/04/17 04:14:47;;;;;;;8.32;4.90;;;4.40;99.90;;;;;;4889490;29;20137;-80
2022/04/17 04:17:13;;;;;;;7.15;4.82;;;4.40;99.90;;;;;;4892586;29;20037;-79
2022/04/17 04:19:39;;;;;;;7.70;4.82;;;4.40;99.90;;;;;;4892960;29;20470;-79
2022/04/17 04:22:04;;;;;;;11.70;5.15;;;4.50;99.90;;;;;;4895070;29;20065;-79
2022/04/17 04:24:31;;;;;;;9.38;5.22;;;4.50;99.90;;;;;;4899466;29;20047;-79
2022/04/17 04:29:41;;;;;;;13.57;4.63;;;4.50;99.90;;;;;;4892871;29;20092;-81
2022/04/17 04:32:07;;;;;;;11.55;4.90;;;4.50;99.90;;;;;;4892368;29;20045;-80
2022/04/17 04:34:33;;;;;;;9.50;5.28;;;4.50;99.90;;;;;;4891827;29;20029;-80
2022/04/17 04:37:00;;;;;;;7.75;5.05;;;4.50;99.90;;;;;;4892078;29;20040;-80
2022/04/17 04:39:27;;;;;;;10.65;5.43;;;4.60;99.90;;;;;;4889748;29;20033;-80
2022/04/17 04:41:53;;;;;;;11.70;5.22;;;4.60;99.90;;;;;;4891537;29;20053;-81
2022/04/17 04:44:19;;;;;;;8.55;4.82;;;4.60;99.90;;;;;;4891149;29;20056;-78
2022/04/17 04:46:45;;;;;;;11.45;5.30;;;4.70;99.90;;;;;;4890563;29;20037;-79
2022/04/17 04:51:55;;;;;;;10.55;5.60;;;4.70;99.90;;;;;;4897668;29;20048;-79
2022/04/17 04:54:20;;;;;;;7.95;4.63;;;4.80;99.90;;;;;;4893597;29;20496;-81
2022/04/17 04:56:46;;;;;;;8.50;5.15;;;4.80;99.90;;;;;;4893012;29;20052;-81
2022/04/17 04:59:12;;;;;;;8.52;4.60;;;4.90;99.90;;;;;;4891312;29;20029;-79
2022/04/17 05:01:38;;;;;;;7.70;4.57;;;4.90;99.90;;;;;;4890533;29;20510;-79
2022/04/17 05:04:03;;;;;;;10.02;5.15;;;5.00;99.90;;;;;;4889603;29;20030;-80
2022/04/17 05:06:29;;;;;;;8.63;4.97;;;5.10;99.90;;;;;;4892243;29;20040;-82
2022/04/17 05:08:55;;;;;;;8.93;4.97;;;5.10;99.90;;;;;;4887067;29;20025;-81
2022/04/17 05:11:21;;;;;;;9.30;4.88;;;5.20;99.90;;;;;;4886066;29;20036;-80
2022/04/17 05:13:47;;;;;;;9.52;4.57;;;5.20;99.90;;;;;;4885007;29;20061;-81
2022/04/17 05:16:13;;;;;;;8.43;4.60;;;5.30;99.90;;;;;;4888122;29;20062;-80
2022/04/17 05:18:39;;;;;;;8.57;4.78;;;5.30;99.90;;;;;;4892863;29;20116;-80
2022/04/17 05:21:06;;;;;;;7.90;4.75;;;5.40;99.90;;;;;;4896411;29;20032;-80
2022/04/17 05:23:32;;;;;;;11.82;4.75;;;5.50;99.90;;;;;;4895681;29;20021;-79
2022/04/17 05:26:00;;;;;;;10.00;5.70;;;5.50;99.90;;;;;;4876414;29;20051;-79
2022/04/17 05:28:28;;;;;;;9.25;5.05;;;5.60;99.90;;;;;;4896607;29;20036;-80
2022/04/17 05:30:54;;;;;;;12.00;5.22;;;5.70;99.90;;;;;;4892605;29;20112;-82
2022/04/17 05:33:21;;;;;;;12.48;4.63;;;5.80;99.90;;;;;;4897230;29;20025;-79
2022/04/17 05:35:47;;;;;;;10.48;5.15;;;5.90;99.90;;;;;;4894446;29;20383;-81
2022/04/17 05:38:13;;;;;;;12.73;5.00;;;6.00;99.90;;;;;;4894728;29;20029;-81
2022/04/17 05:40:47;;;;;;;8.68;4.97;;;6.10;99.90;;;;;;4893918;29;20031;-80
2022/04/17 05:43:14;;;;;;;9.82;4.82;;;6.10;99.90;;;;;;4892647;29;20060;-81
2022/04/17 05:45:40;;;;;;;9.35;5.00;;;6.20;99.90;;;;;;4892179;29;20378;-82
2022/04/17 05:48:09;;;;;;;10.88;4.72;;;6.20;99.90;;;;;;4890893;29;20048;-82
2022/04/17 05:50:37;;;;;;;9.18;4.68;;;6.20;99.90;;;;;;4922538;23;20059;-87
2022/04/17 05:53:03;;;;;;;7.45;4.60;;;6.30;99.90;;;;;;4916842;29;20066;-87
2022/04/17 05:55:29;;;;;;;8.80;4.63;;;6.40;99.90;;;;;;4916203;29;20092;-87
2022/04/17 05:57:54;;;;;;;10.52;5.00;;;6.40;99.90;;;;;;4901085;29;20072;-87
2022/04/17 06:00:21;;;;;;;7.70;4.65;;;6.50;99.90;;;;;;4917071;29;20040;-87
2022/04/17 06:02:48;;;;;;;11.43;4.65;;;6.60;99.90;;;;;;4919491;29;20097;-87
2022/04/17 06:05:17;;;;;;;10.68;4.95;;;6.60;99.80;;;;;;4920343;29;20045;-88
2022/04/17 06:07:43;;;;;;;11.25;5.22;;;6.70;99.90;;;;;;4919694;29;20092;-86
2022/04/17 06:10:11;;;;;;;9.02;5.22;;;6.80;99.60;;;;;;4919848;29;20073;-87
2022/04/17 06:12:38;;;;;;;12.43;5.53;;;6.90;99.30;;;;;;4921183;29;20032;-87
2022/04/17 06:15:05;;;;;;;7.70;4.93;;;7.00;99.10;;;;;;4921720;29;20033;-87
2022/04/17 06:17:38;;;;;;;10.90;5.78;;;7.10;98.80;;;;;;4922127;29;20035;-88
2022/04/17 06:20:06;;;;;;;13.35;5.13;;;7.20;98.60;;;;;;4921509;29;20048;-88
2022/04/17 06:22:34;;;;;;;11.30;4.97;;;7.40;98.60;;;;;;4919370;29;20035;-88
2022/04/17 06:25:05;;;;;;;7.80;4.50;;;7.40;98.30;;;;;;4920098;29;20036;-88
2022/04/17 06:27:47;;;;;;;11.23;4.93;;;7.50;98.30;;;;;;4919244;29;20060;-87
2022/04/17 06:30:23;;;;;;;9.13;4.78;;;7.50;98.00;;;;;;4918454;29;20041;-87
2022/04/17 06:32:50;;;;;;;11.55;5.28;;;7.50;98.00;;;;;;4920242;29;20029;-87
2022/04/17 06:35:17;;;;;;;12.60;4.97;;;7.50;98.10;;;;;;4919029;29;20024;-87
2022/04/17 06:37:52;;;;;;;13.65;5.18;;;7.50;97.90;;;;;;4920724;29;20104;-86
2022/04/17 06:40:19;;;;;;;11.48;5.03;;;7.50;97.70;;;;;;4919832;29;20056;-86
2022/04/17 06:42:46;;;;;;;8.02;4.88;;;7.50;97.80;;;;;;4922133;29;20009;-87
2022/04/17 06:45:12;;;;;;;10.50;4.60;;;7.60;97.80;;;;;;4921557;29;20055;-87
2022/04/17 06:47:38;;;;;;;9.93;5.32;;;7.70;97.60;;;;;;4921650;29;20032;-87
2022/04/17 06:50:05;;;;;;;7.90;4.95;;;7.80;97.70;;;;;;4921195;29;20060;-86
2022/04/17 06:52:31;;;;;;;8.55;4.70;;;7.80;97.60;;;;;;4922925;29;20009;-87
2022/04/17 06:54:57;;;;;;;12.38;4.70;;;7.90;97.50;;;;;;4922295;29;20017;-85
2022/04/17 06:57:33;;;;;;;11.32;5.15;;;8.00;97.40;;;;;;4922837;29;20044;-87
2022/04/17 07:00:09;;;;;;;10.38;4.72;;;8.10;97.20;;;;;;4905918;29;20032;-88
2022/04/17 07:02:36;;;;;;;12.18;4.35;;;8.20;96.70;;;;;;4922596;29;20055;-87
2022/04/17 07:05:01;;;;;;;7.32;4.35;;;8.20;96.80;;;;;;4922722;29;20052;-87
2022/04/17 07:07:27;;;;;;;6.47;3.97;;;8.30;96.70;;;;;;4920053;29;20048;-86
2022/04/17 07:09:54;;;;;;;11.73;4.35;;;8.30;96.30;;;;;;4921227;29;20017;-87
2022/04/17 07:12:21;;;;;;;7.82;4.28;;;8.30;95.80;;;;;;4922558;29;20030;-87
2022/04/17 07:14:47;;;;;;;8.02;4.82;;;8.30;95.70;;;;;;4922495;29;20101;-88
2022/04/17 07:17:13;;;;;;;10.32;4.47;;;8.30;96.00;;;;;;4922989;29;20044;-87
2022/04/17 07:19:39;;;;;;;8.63;4.50;;;8.40;95.70;;;;;;4922927;29;20039;-88
2022/04/17 07:22:05;;;;;;;9.10;4.75;;;8.50;95.80;;;;;;4922555;29;20017;-85
2022/04/17 07:24:31;;;;;;;12.15;5.32;;;8.50;95.60;;;;;;4921506;29;20025;-86
2022/04/17 07:27:00;;;;;;;9.77;4.28;;;8.50;95.70;;;;;;4922616;29;20055;-88
2022/04/17 07:29:26;;;;;;;7.85;3.83;;;8.60;95.70;;;;;;4923062;29;20108;-87
2022/04/17 07:31:53;;;;;;;8.38;4.10;;;8.70;95.50;;;;;;4922687;29;20097;-85
2022/04/17 07:34:20;;;;;;;8.90;4.35;;;8.80;95.20;;;;;;4923151;29;20013;-86
2022/04/17 07:36:47;;;;;;;8.50;4.38;;;8.90;95.10;;;;;;4923371;29;20041;-86
2022/04/17 07:39:17;;;;;;;8.02;4.38;;;8.90;95.00;;;;;;4921988;29;20027;-86
2022/04/17 07:41:46;;;;;;;8.15;4.45;;;9.10;94.80;;;;;;4922090;29;20082;-87
2022/04/17 07:44:14;;;;;;;7.22;4.07;;;9.10;94.60;;;;;;4918696;29;20025;-88
2022/04/17 07:46:40;;;;;;;6.47;3.50;;;9.30;94.40;;;;;;4916126;29;20029;-88
2022/04/17 07:49:06;;;;;;;9.88;4.05;;;9.30;93.50;;;;;;4915615;29;20025;-87
2022/04/17 07:51:33;;;;;;;10.93;4.03;;;9.30;93.50;;;;;;4914537;29;20036;-86
2022/04/17 07:53:59;;;;;;;7.68;3.70;;;9.30;93.50;;;;;;4914273;29;20023;-86
2022/04/17 07:56:25;;;;;;;9.15;3.85;;;9.50;93.40;;;;;;4914390;29;20020;-87
2022/04/17 07:58:51;;;;;;;7.18;3.92;;;9.70;92.70;;;;;;4913955;29;20024;-88
2022/04/17 08:01:17;;;;;;;8.55;3.55;;;9.80;92.40;;;;;;4911427;29;20311;-87
2022/04/17 08:06:10;;;;;;;5.72;3.30;;;9.90;91.60;;;;;;4913450;29;20108;-87
2022/04/17 08:08:37;;;;;;;5.13;3.05;;;10.00;91.50;;;;;;4912162;29;20054;-86
2022/04/17 08:11:04;;;;;;;4.55;2.20;;;9.90;91.40;;;;;;4917478;29;20040;-86
2022/04/17 08:13:31;;;;;;;4.45;2.08;;;9.90;90.30;;;;;;4922351;29;20020;-87
2022/04/17 08:15:57;;;;;;;6.65;2.22;;;9.70;89.90;;;;;;4921603;29;20074;-87
2022/04/17 08:18:22;;;;;;;7.93;1.98;;;9.80;89.10;;;;;;4920821;29;20136;-87
2022/04/17 08:20:48;;;;;;;3.10;1.73;;;9.80;88.10;;;;;;4920774;29;20088;-89
2022/04/17 08:23:15;;;;;;;3.80;1.70;;;9.90;85.80;;;;;;4915463;29;20100;-88
2022/04/17 08:25:41;;;;;;;4.30;1.67;;;9.90;86.20;;;;;;4915450;29;20036;-86
2022/04/17 08:28:07;;;;;;;4.70;1.80;;;10.10;86.30;;;;;;4900547;29;20052;-87
2022/04/17 08:30:34;;;;;;;6.50;1.80;;;10.10;86.00;;;;;;4919096;29;20096;-87
2022/04/17 08:33:04;;;;;;;6.38;1.98;;;10.10;85.10;;;;;;4920604;29;20041;-87
2022/04/17 08:35:30;;;;;;;5.90;2.08;;;10.10;85.10;;;;;;4919373;29;20025;-86
2022/04/17 08:38:00;;;;;;;4.72;2.22;;;10.20;84.90;;;;;;4916865;29;20049;-86
2022/04/17 08:40:30;;;;;;;4.10;1.83;;;10.20;84.70;;;;;;4916955;29;20039;-87
2022/04/17 08:42:57;;;;;;;2.83;1.88;;;10.40;84.20;;;;;;4919533;29;20028;-88
2022/04/17 08:45:24;;;;;;;6.95;2.17;;;10.30;85.00;;;;;;4917658;29;20051;-87
2022/04/17 08:47:51;;;;;;;6.72;2.00;;;10.30;85.00;;;;;;4918372;29;20032;-87
2022/04/17 08:50:18;;;;;;;4.40;2.10;;;10.40;84.60;;;;;;4920818;29;20445;-86
2022/04/17 08:52:49;;;;;;;6.07;3.00;;;10.50;84.20;;;;;;4919357;29;20019;-87
2022/04/17 08:55:15;;;;;;;4.75;2.28;;;10.80;84.20;;;;;;4919412;29;20040;-86
2022/04/17 08:57:42;;;;;;;5.10;2.15;;;10.90;84.20;;;;;;4920853;29;20029;-86
2022/04/17 09:00:16;;;;;;;9.70;2.70;;;11.00;84.50;;;;;;4919267;29;20126;-88
2022/04/17 09:02:43;;;;;;;4.32;2.80;;;11.10;83.50;;;;;;4913321;29;20101;-87
2022/04/17 09:05:11;;;;;;;3.13;2.40;;;11.20;81.80;;;;;;4913730;29;20191;-87
2022/04/17 09:07:49;;;;;;;6.40;2.88;;;11.40;80.60;;;;;;4914008;29;20049;-87
2022/04/17 09:10:31;;;;;;;4.75;2.70;;;11.40;81.50;;;;;;4914209;29;20043;-87
2022/04/17 09:13:01;;;;;;;4.97;2.80;;;11.40;82.50;;;;;;4915477;29;20037;-85
2022/04/17 09:15:33;;;;;;;3.92;2.45;;;11.20;82.90;;;;;;4914680;29;20036;-88
2022/04/17 09:17:59;;;;;;;4.25;2.15;;;11.50;82.80;;;;;;4914581;29;20043;-87
2022/04/17 09:20:27;;;;;;;4.35;2.63;;;11.90;81.60;;;;;;4915109;29;20033;-87
2022/04/17 09:23:01;;;;;;;5.75;2.70;;;12.50;80.80;;;;;;4916959;29;20127;-86
2022/04/17 09:25:27;;;;;;;7.23;2.87;;;12.70;79.70;;;;;;4920800;29;20096;-87
2022/04/17 09:28:05;;;;;;;4.30;2.70;;;12.70;79.70;;;;;;4923823;29;20308;-87
2022/04/17 09:30:39;;;;;;;3.55;2.50;;;13.70;77.20;;;;;;4921572;29;20039;-87
2022/04/17 09:33:09;;;;;;;4.53;2.63;;;14.80;74.80;;;;;;4921477;29;20041;-88
2022/04/17 09:35:35;;;;;;;5.57;2.30;;;15.40;72.90;;;;;;4919019;29;20040;-88
2022/04/17 09:38:06;;;;;;;9.60;2.50;;;16.10;69.30;;;;;;4918213;29;20306;-87
2022/04/17 09:40:33;;;;;;;2.95;2.17;;;17.30;66.70;;;;;;4921361;29;20129;-89
2022/04/17 09:43:11;;;;;;;3.70;2.30;;;18.30;64.40;;;;;;4920862;29;20032;-89
2022/04/17 09:46:00;;;;;;;4.45;2.60;;;19.20;62.50;;;;;;4919752;29;20096;-88
2022/04/17 09:48:52;;;;;;;4.47;2.50;;;19.70;60.70;;;;;;4918046;29;20040;-88
2022/04/17 09:51:30;;;;;;;4.07;2.42;;;20.00;59.50;;;;;;4916292;29;20085;-89
2022/04/17 09:54:01;;;;;;;4.13;2.42;;;20.90;56.40;;;;;;4917171;29;20029;-87
2022/04/17 09:56:43;;;;;;;5.25;2.30;;;19.70;56.40;;;;;;4916767;29;20032;-88
2022/04/17 09:59:23;;;;;;;3.17;2.45;;;19.70;56.50;;;;;;4918164;29;20080;-89
2022/04/17 10:01:53;;;;;;;4.72;2.70;;;20.80;54.80;;;;;;4900131;29;20036;-88
2022/04/17 10:04:24;;;;;;;5.78;2.72;;;21.30;53.40;;;;;;4915099;29;20016;-87
2022/04/17 10:06:51;;;;;;;3.88;2.53;;;21.80;52.50;;;;;;4918185;29;20041;-87
2022/04/17 10:09:18;;;;;;;3.80;2.60;;;22.60;51.90;;;;;;4921050;29;20024;-87
2022/04/17 10:11:44;;;;;;;3.63;2.60;;;24.20;49.70;;;;;;4921100;29;20035;-88
2022/04/17 10:14:10;;;;;;;8.27;2.30;;;25.30;47.70;;;;;;4920421;29;20056;-87
2022/04/17 10:16:43;;;;;;;3.25;2.40;;;25.30;46.30;;;;;;4921121;29;20143;-88
2022/04/17 10:19:15;;;;;;;4.45;2.38;;;25.40;45.90;;;;;;4919436;29;20025;-87
2022/04/17 10:21:41;;;;;;;6.80;2.35;;;25.60;45.50;;;;;;4916739;29;20115;-87
2022/04/17 10:24:12;;;;;;;4.35;2.20;;;23.90;45.90;;;;;;4915280;29;20051;-88
2022/04/17 10:26:43;;;;;;;6.55;2.40;;;24.40;45.50;;;;;;4914881;29;20092;-85
2022/04/17 10:29:15;;;;;;;3.45;2.20;;;25.00;44.30;;;;;;4913016;29;20040;-87
2022/04/17 10:32:04;;;;;;;6.55;2.55;;;23.90;44.90;;;;;;4912911;29;20035;-87
2022/04/17 10:34:51;;;;;;;6.05;2.83;;;23.20;45.40;;;;;;4912631;29;20086;-86
2022/04/17 10:37:25;;;;;;;3.67;2.42;;;23.70;45.10;;;;;;4909367;29;20037;-87
2022/04/17 10:39:54;;;;;;;4.60;2.27;;;24.30;45.00;;;;;;4924059;29;20016;-88
2022/04/17 10:42:22;;;;;;;4.25;2.45;;;25.90;43.10;;;;;;4924132;29;20261;-88
2022/04/17 10:45:03;;;;;;;4.13;1.85;;;26.40;42.40;;;;;;4924088;29;20021;-89
2022/04/17 10:47:30;;;;;;;4.20;2.22;;;25.70;42.80;;;;;;4919421;29;20024;-88
2022/04/17 10:49:57;;;;;;;4.22;2.00;;;26.30;42.40;;;;;;4921317;29;20044;-88
2022/04/17 10:52:30;;;;;;;3.28;2.00;;;26.90;40.30;;;;;;4919558;29;20023;-89
2022/04/17 10:55:10;;;;;;;5.57;1.98;;;26.90;40.30;;;;;;4923360;29;20029;-88
2022/04/17 10:57:46;;;;;;;2.55;1.67;;;26.90;40.20;;;;;;4923888;29;20028;-88
2022/04/17 11:00:38;;;;;;;4.28;2.22;;;27.50;39.70;;;;;;4917758;29;20037;-88
2022/04/17 11:03:11;;;;;;;4.93;2.10;;;27.90;39.60;;;;;;4915158;29;20032;-88
2022/04/17 11:08:24;;;;;;;3.05;2.35;;;27.40;40.20;;;;;;4921812;29;20036;-88
2022/04/17 11:11:02;;;;;;;4.32;1.98;;;27.90;39.50;;;;;;4922518;29;20047;-87
2022/04/17 11:13:34;;;;;;;4.47;2.17;;;28.00;39.10;;;;;;4923321;29;20089;-87
2022/04/17 11:16:05;;;;;;;3.13;2.00;;;27.70;39.30;;;;;;4923350;29;20021;-88
2022/04/17 11:18:31;;;;;;;7.20;2.00;;;27.50;38.70;;;;;;4922110;29;20049;-87
2022/04/17 11:21:00;;;;;;;3.25;1.90;;;27.10;38.20;;;;;;4921900;29;20017;-88
2022/04/17 11:23:47;;;;;;;3.00;2.28;;;27.40;38.40;;;;;;4922759;29;20056;-88
2022/04/17 11:26:14;;;;;;;3.60;2.20;;;27.50;38.30;;;;;;4922901;29;20092;-87
2022/04/17 11:28:40;;;;;;;2.25;1.90;;;27.80;38.00;;;;;;4919638;29;20025;-86
2022/04/17 11:31:06;;;;;;;6.85;2.20;;;27.70;37.80;;;;;;4917013;29;20028;-87
2022/04/17 11:33:32;;;;;;;3.38;1.85;;;27.00;37.60;;;;;;4917588;29;20028;-88
2022/04/17 11:35:58;;;;;;;2.78;1.80;;;27.10;37.50;;;;;;4902056;29;20028;-88
2022/04/17 11:38:25;;;;;;;2.67;1.83;;;26.10;38.70;;;;;;4917224;29;20036;-87
2022/04/17 11:40:51;;;;;;;4.05;2.00;;;26.10;39.10;;;;;;4916571;29;20033;-88
2022/04/17 11:43:17;;;;;;;3.78;2.20;;;26.70;39.10;;;;;;4899796;29;20096;-88
2022/04/17 11:45:45;;;;;;;2.72;1.95;;;28.00;37.70;;;;;;4915282;29;20043;-88
2022/04/17 11:48:13;;;;;;;4.53;2.30;;;29.10;37.30;;;;;;4916449;29;20035;-88
2022/04/17 11:50:40;;;;;;;3.03;1.85;;;28.80;36.60;;;;;;4929390;23;20048;-80
2022/04/17 11:53:10;;;;;;;2.50;1.95;;;28.10;37.10;;;;;;4907652;29;20017;-84
2022/04/17 11:55:38;;;;;;;3.20;1.80;;;28.60;36.50;;;;;;4916124;29;20032;-82
2022/04/17 11:58:09;;;;;;;3.38;2.03;;;28.90;36.40;;;;;;4906903;29;20036;-83
2022/04/17 12:00:35;;;;;;;4.72;1.90;;;28.40;37.20;;;;;;4907865;29;20033;-84
2022/04/17 12:03:03;;;;;;;3.08;1.90;;;28.00;36.90;;;;;;4906372;29;20108;-83
2022/04/17 12:05:30;;;;;;;3.25;2.00;;;27.70;37.30;;;;;;4905079;29;20074;-84
2022/04/17 12:07:58;;;;;;;3.85;1.80;;;28.60;36.10;;;;;;4905691;29;20032;-84
2022/04/17 12:10:25;;;;;;;2.88;1.73;;;28.20;36.60;;;;;;4908378;29;20374;-82
2022/04/17 12:12:50;;;;;;;3.30;2.22;;;28.30;36.60;;;;;;4907198;29;20066;-83
2022/04/17 12:15:16;;;;;;;3.65;2.17;;;28.40;37.00;;;;;;4906411;29;20078;-81
2022/04/17 12:17:42;;;;;;;8.43;2.25;;;28.20;37.20;;;;;;4907796;29;20025;-83
2022/04/17 12:20:12;;;;;;;3.83;2.28;;;28.20;36.90;;;;;;4909052;29;20092;-84
2022/04/17 12:22:40;;;;;;;3.20;2.08;;;27.30;36.60;;;;;;4907822;29;20032;-84
2022/04/17 12:25:24;;;;;;;3.17;1.67;;;27.00;36.80;;;;;;4912281;29;20269;-83
2022/04/17 12:27:52;;;;;;;4.57;1.98;;;27.80;35.50;;;;;;4908753;29;20041;-84
2022/04/17 12:30:26;;;;;;;3.63;1.60;;;27.80;36.20;;;;;;4916920;29;20013;-84
2022/04/17 12:32:59;;;;;;;4.53;2.20;;;27.70;36.20;;;;;;4915840;29;20033;-84
2022/04/17 12:35:28;;;;;;;3.15;1.98;;;28.40;35.90;;;;;;4909508;29;20080;-83
2022/04/17 12:38:07;;;;;;;3.30;2.50;;;28.60;35.80;;;;;;4917506;29;20049;-83
2022/04/17 12:40:42;;;;;;;3.75;1.98;;;29.00;35.90;;;;;;4912408;29;20060;-83
2022/04/17 12:43:19;;;;;;;5.10;1.80;;;29.50;35.60;;;;;;4907276;29;20068;-82
2022/04/17 12:45:57;;;;;;;7.13;2.22;;;29.90;34.70;;;;;;4912547;29;20032;-82
2022/04/17 12:48:31;;;;;;;2.90;2.00;;;29.80;35.00;;;;;;4910899;29;20048;-83
2022/04/17 12:51:03;;;;;;;2.08;1.88;;;29.70;35.20;;;;;;4919715;29;20060;-84
2022/04/17 12:53:40;;;;;;;5.57;2.50;;;30.00;35.00;;;;;;4920010;29;20048;-85
2022/04/17 12:56:08;;;;;;;3.47;1.90;;;29.60;35.10;;;;;;4920253;29;20083;-83
2022/04/17 12:58:55;;;;;;;4.20;2.10;;;29.80;34.80;;;;;;4919846;29;20098;-83
2022/04/17 13:01:31;;;;;;;2.05;1.80;;;29.50;35.40;;;;;;4916589;29;20040;-82
2022/04/17 13:04:24;;;;;;;2.55;1.73;;;29.40;34.90;;;;;;4917941;29;20045;-85
2022/04/17 13:07:11;;;;;;;4.45;2.17;;;28.70;35.10;;;;;;4914494;29;20085;-83
2022/04/17 13:09:37;;;;;;;4.25;2.08;;;28.50;35.90;;;;;;4912424;29;20025;-83
2022/04/17 13:12:03;;;;;;;3.45;2.30;;;29.00;35.10;;;;;;4890637;29;20096;-83
2022/04/17 13:14:29;;;;;;;3.03;2.20;;;29.60;34.80;;;;;;4905378;29;20710;-83
2022/04/17 13:16:57;;;;;;;4.03;2.28;;;29.10;34.90;;;;;;4904298;29;20053;-82